createdAt,value
2023-05-23T00:00:02.220Z,19.10553
2023-05-23T00:01:10.890Z,19.115601
2023-05-23T00:02:20.582Z,19.085388
2023-05-23T00:03:30.193Z,18.98468
2023-05-23T00:04:38.818Z,19.004822
2023-05-23T00:05:48.498Z,19.075317
2023-05-23T00:06:57.146Z,19.075317
2023-05-23T00:08:05.903Z,19.024963
2023-05-23T00:09:15.674Z,19.024963
2023-05-23T00:10:23.199Z,18.994751
2023-05-23T00:11:32.861Z,18.934326
2023-05-23T00:12:42.552Z,18.98468
2023-05-23T00:13:51.149Z,18.964539
2023-05-23T00:15:00.804Z,18.954468
2023-05-23T00:16:09.444Z,18.924255
2023-05-23T00:17:18.119Z,19.024963
2023-05-23T00:18:27.762Z,18.934326
2023-05-23T00:19:36.728Z,18.994751
2023-05-23T00:20:46.052Z,19.024963
2023-05-23T00:21:54.704Z,18.994751
2023-05-23T00:23:02.387Z,18.994751
2023-05-23T00:24:11.039Z,18.98468
2023-05-23T00:25:18.828Z,18.964539
2023-05-23T00:26:28.339Z,18.934326
2023-05-23T00:27:38.001Z,18.994751
2023-05-23T00:28:47.668Z,19.024963
2023-05-23T00:29:57.319Z,19.085388
2023-05-23T00:31:05.993Z,19.075317
2023-05-23T00:32:14.691Z,19.075317
2023-05-23T00:33:24.336Z,19.024963
2023-05-23T00:34:33.075Z,19.004822
2023-05-23T00:35:41.887Z,19.004822
2023-05-23T00:36:51.409Z,19.035034
2023-05-23T00:37:59.064Z,19.075317
2023-05-23T00:39:08.722Z,19.145813
2023-05-23T00:40:17.370Z,19.135742
2023-05-23T00:41:25.178Z,19.186096
2023-05-23T00:42:34.702Z,19.256592
2023-05-23T00:43:44.368Z,19.186096
2023-05-23T00:44:53.012Z,19.256592
2023-05-23T00:46:02.649Z,19.266663
2023-05-23T00:47:12.316Z,19.206238
2023-05-23T00:48:21.954Z,19.256592
2023-05-23T00:49:30.622Z,19.296875
2023-05-23T00:50:39.257Z,19.397583
2023-05-23T00:51:48.929Z,19.367371
2023-05-23T00:52:56.572Z,19.3573
2023-05-23T00:54:05.219Z,19.306946
2023-05-23T00:55:14.863Z,19.407654
2023-05-23T00:56:22.540Z,19.367371
2023-05-23T00:57:32.309Z,19.387512
2023-05-23T00:58:41.841Z,19.478149
2023-05-23T00:59:51.485Z,19.407654
2023-05-23T01:01:01.123Z,19.478149
2023-05-23T01:02:09.903Z,19.407654
2023-05-23T01:03:18.864Z,19.387512
2023-05-23T01:04:28.235Z,19.3573
2023-05-23T01:05:35.925Z,19.468079
2023-05-23T01:06:45.493Z,19.538574
2023-05-23T01:07:54.147Z,19.508362
2023-05-23T01:09:01.829Z,19.639282
2023-05-23T01:10:10.472Z,19.538574
2023-05-23T01:11:18.124Z,19.629211
2023-05-23T01:12:26.767Z,19.639282
2023-05-23T01:13:36.564Z,19.699707
2023-05-23T01:14:45.105Z,19.619141
2023-05-23T01:15:54.830Z,19.639282
2023-05-23T01:17:04.421Z,19.699707
2023-05-23T01:18:12.071Z,19.689636
2023-05-23T01:19:21.850Z,19.659424
2023-05-23T01:20:29.451Z,19.619141
2023-05-23T01:21:39.137Z,19.578857
2023-05-23T01:22:48.810Z,19.639282
2023-05-23T01:23:57.446Z,19.689636
2023-05-23T01:25:07.091Z,19.578857
2023-05-23T01:26:14.726Z,19.478149
2023-05-23T01:27:24.420Z,19.538574
2023-05-23T01:28:33.075Z,19.558716
2023-05-23T01:29:40.832Z,19.518433
2023-05-23T01:30:50.367Z,19.558716
2023-05-23T01:31:58.106Z,19.558716
2023-05-23T01:33:06.716Z,19.619141
2023-05-23T01:34:16.475Z,19.578857
2023-05-23T01:35:26.122Z,19.538574
2023-05-23T01:36:35.779Z,19.619141
2023-05-23T01:37:45.436Z,19.639282
2023-05-23T01:38:53.086Z,19.669495
2023-05-23T01:40:02.783Z,19.729919
2023-05-23T01:41:10.459Z,19.699707
2023-05-23T01:42:19.079Z,19.699707
2023-05-23T01:43:28.734Z,19.659424
2023-05-23T01:44:37.381Z,19.619141
2023-05-23T01:45:47.207Z,19.659424
2023-05-23T01:46:56.694Z,19.629211
2023-05-23T01:48:05.361Z,19.588928
2023-05-23T01:49:14.994Z,19.578857
2023-05-23T01:50:23.644Z,19.548645
2023-05-23T01:51:32.321Z,19.619141
2023-05-23T01:52:42.008Z,19.548645
2023-05-23T01:53:49.641Z,19.629211
2023-05-23T01:54:59.312Z,19.619141
2023-05-23T01:56:08.948Z,19.729919
2023-05-23T01:57:18.597Z,19.669495
2023-05-23T01:58:28.283Z,19.619141
2023-05-23T01:59:35.928Z,19.659424
2023-05-23T02:00:44.608Z,19.659424
2023-05-23T02:01:54.340Z,19.73999
2023-05-23T02:03:02.898Z,19.699707
2023-05-23T02:04:12.542Z,19.629211
2023-05-23T02:05:21.227Z,19.669495
2023-05-23T02:06:28.863Z,19.669495
2023-05-23T02:07:38.526Z,19.689636
2023-05-23T02:08:47.162Z,19.689636
2023-05-23T02:09:55.802Z,19.699707
2023-05-23T02:11:05.469Z,19.619141
2023-05-23T02:12:13.109Z,19.629211
2023-05-23T02:13:22.753Z,19.659424
2023-05-23T02:14:31.434Z,19.760132
2023-05-23T02:15:41.136Z,19.760132
2023-05-23T02:16:50.751Z,19.659424
2023-05-23T02:17:58.628Z,19.578857
2023-05-23T02:19:07.032Z,19.538574
2023-05-23T02:20:16.658Z,19.548645
2023-05-23T02:21:25.312Z,19.619141
2023-05-23T02:22:35.048Z,19.689636
2023-05-23T02:23:43.688Z,19.538574
2023-05-23T02:24:52.347Z,19.518433
2023-05-23T02:26:02.001Z,19.478149
2023-05-23T02:27:09.644Z,19.619141
2023-05-23T02:28:18.370Z,19.689636
2023-05-23T02:29:28.058Z,19.578857
2023-05-23T02:30:35.712Z,19.508362
2023-05-23T02:31:45.406Z,19.3573
2023-05-23T02:32:54.099Z,19.407654
2023-05-23T02:34:02.808Z,19.407654
2023-05-23T02:35:11.339Z,19.387512
2023-05-23T02:36:20.024Z,19.216309
2023-05-23T02:37:28.680Z,19.256592
2023-05-23T02:38:38.364Z,19.206238
2023-05-23T02:39:46.999Z,19.23645
2023-05-23T02:40:55.660Z,19.23645
2023-05-23T02:42:05.314Z,19.206238
2023-05-23T02:43:12.963Z,19.155884
2023-05-23T02:44:22.647Z,19.115601
2023-05-23T02:45:30.295Z,18.994751
2023-05-23T02:46:39.953Z,19.024963
2023-05-23T02:47:49.639Z,19.035034
2023-05-23T02:48:58.217Z,19.065247
2023-05-23T02:50:08.131Z,18.934326
2023-05-23T02:51:17.626Z,18.924255
2023-05-23T02:52:26.408Z,18.994751
2023-05-23T02:53:36.053Z,19.075317
2023-05-23T02:54:45.697Z,19.004822
2023-05-23T02:55:54.339Z,18.994751
2023-05-23T02:57:03.978Z,18.904114
2023-05-23T02:58:11.642Z,18.994751
2023-05-23T02:59:21.293Z,18.964539
2023-05-23T03:00:30.964Z,18.894043
2023-05-23T03:01:39.702Z,18.773193
2023-05-23T03:02:49.312Z,18.813477
2023-05-23T03:03:58.000Z,18.783264
2023-05-23T03:05:06.624Z,18.863831
2023-05-23T03:06:16.721Z,18.843689
2023-05-23T03:07:28.418Z,18.894043
2023-05-23T03:08:35.311Z,18.894043
2023-05-23T03:09:44.187Z,18.843689
2023-05-23T03:10:52.148Z,18.813477
2023-05-23T03:12:02.128Z,18.813477
2023-05-23T03:13:12.062Z,18.813477
2023-05-23T03:14:19.992Z,18.843689
2023-05-23T03:15:29.923Z,18.813477
2023-05-23T03:16:38.881Z,18.742981
2023-05-23T03:17:48.893Z,18.682556
2023-05-23T03:18:58.897Z,18.682556
2023-05-23T03:20:07.726Z,18.702698
2023-05-23T03:21:17.669Z,18.712769
2023-05-23T03:22:27.758Z,18.73291
2023-05-23T03:23:35.603Z,18.712769
2023-05-23T03:24:45.562Z,18.803406
2023-05-23T03:25:54.495Z,18.702698
2023-05-23T03:27:03.432Z,18.712769
2023-05-23T03:28:13.394Z,18.652344
2023-05-23T03:29:21.423Z,18.632202
2023-05-23T03:30:31.370Z,18.702698
2023-05-23T03:31:41.339Z,18.712769
2023-05-23T03:32:50.308Z,18.682556
2023-05-23T03:34:00.239Z,18.813477
2023-05-23T03:35:09.204Z,18.783264
2023-05-23T03:36:19.139Z,18.753052
2023-05-23T03:37:29.082Z,18.712769
2023-05-23T03:38:38.192Z,18.702698
2023-05-23T03:39:47.985Z,18.662415
2023-05-23T03:40:56.969Z,18.652344
2023-05-23T03:42:04.909Z,18.773193
2023-05-23T03:43:14.854Z,18.773193
2023-05-23T03:44:23.790Z,18.783264
2023-05-23T03:45:32.809Z,18.783264
2023-05-23T03:46:42.763Z,18.773193
2023-05-23T03:47:50.672Z,18.783264
2023-05-23T03:49:00.596Z,18.712769
2023-05-23T03:50:09.550Z,18.712769
2023-05-23T03:51:18.569Z,18.702698
2023-05-23T03:52:28.519Z,18.73291
2023-05-23T03:53:36.792Z,18.73291
2023-05-23T03:54:46.525Z,18.702698
2023-05-23T03:55:55.333Z,18.702698
2023-05-23T03:57:05.290Z,18.773193
2023-05-23T03:58:15.224Z,18.883972
2023-05-23T03:59:24.171Z,18.863831
2023-05-23T04:00:34.143Z,18.934326
2023-05-23T04:01:44.097Z,18.954468
2023-05-23T04:02:52.185Z,18.904114
2023-05-23T04:04:02.114Z,18.813477
2023-05-23T04:05:10.016Z,18.833618
2023-05-23T04:06:18.986Z,18.924255
2023-05-23T04:07:30.115Z,18.803406
2023-05-23T04:08:39.012Z,18.803406
2023-05-23T04:09:48.950Z,18.73291
2023-05-23T04:10:59.051Z,18.682556
2023-05-23T04:12:07.877Z,18.73291
2023-05-23T04:13:17.917Z,18.73291
2023-05-23T04:14:26.896Z,18.803406
2023-05-23T04:15:35.871Z,18.803406
2023-05-23T04:16:45.866Z,18.803406
2023-05-23T04:17:55.871Z,18.702698
2023-05-23T04:19:06.072Z,18.773193
2023-05-23T04:20:14.736Z,18.813477
2023-05-23T04:21:23.642Z,18.833618
2023-05-23T04:22:32.358Z,18.883972
2023-05-23T04:23:40.090Z,18.883972
2023-05-23T04:24:47.837Z,18.803406
2023-05-23T04:25:57.526Z,18.753052
2023-05-23T04:27:05.311Z,18.753052
2023-05-23T04:28:14.860Z,18.73291
2023-05-23T04:29:23.602Z,18.753052
2023-05-23T04:30:32.236Z,18.954468
2023-05-23T04:31:41.931Z,18.98468
2023-05-23T04:32:50.628Z,19.035034
2023-05-23T04:33:59.246Z,19.035034
2023-05-23T04:35:09.174Z,19.115601
2023-05-23T04:36:18.833Z,19.176025
2023-05-23T04:37:28.504Z,19.186096
2023-05-23T04:38:37.151Z,19.115601
2023-05-23T04:39:44.804Z,19.115601
2023-05-23T04:40:54.594Z,19.035034
2023-05-23T04:42:04.158Z,18.98468
2023-05-23T04:43:14.926Z,18.994751
2023-05-23T04:44:24.480Z,18.883972
2023-05-23T04:45:32.153Z,18.894043
2023-05-23T04:46:41.928Z,18.833618
2023-05-23T04:47:50.526Z,18.833618
2023-05-23T04:48:59.147Z,18.894043
2023-05-23T04:50:08.804Z,18.904114
2023-05-23T04:51:18.460Z,18.934326
2023-05-23T04:52:27.134Z,18.964539
2023-05-23T04:53:36.787Z,18.924255
2023-05-23T04:54:44.433Z,18.924255
2023-05-23T04:55:54.078Z,18.954468
2023-05-23T04:57:02.776Z,18.964539
2023-05-23T04:58:10.406Z,18.894043
2023-05-23T04:59:20.177Z,18.934326
2023-05-23T05:00:29.718Z,18.954468
2023-05-23T05:01:39.407Z,18.964539
2023-05-23T05:02:49.083Z,19.065247
2023-05-23T05:03:56.774Z,19.085388
2023-05-23T05:05:07.404Z,19.065247
2023-05-23T05:06:16.068Z,19.176025
2023-05-23T05:07:23.744Z,19.075317
2023-05-23T05:08:33.415Z,18.994751
2023-05-23T05:09:41.083Z,19.035034
2023-05-23T05:10:49.788Z,19.145813
2023-05-23T05:11:59.483Z,19.367371
2023-05-23T05:13:07.185Z,19.478149
2023-05-23T05:14:16.873Z,19.538574
2023-05-23T05:15:26.603Z,19.468079
2023-05-23T05:16:35.300Z,19.48822
2023-05-23T05:17:45.332Z,19.407654
2023-05-23T05:18:54.614Z,19.3573
2023-05-23T05:20:03.259Z,19.337158
2023-05-23T05:21:12.913Z,19.327087
2023-05-23T05:22:21.652Z,19.478149
2023-05-23T05:23:31.303Z,19.447937
2023-05-23T05:24:39.937Z,19.478149
2023-05-23T05:25:49.613Z,19.437866
2023-05-23T05:26:59.272Z,19.367371
2023-05-23T05:28:07.960Z,19.397583
2023-05-23T05:29:16.602Z,19.508362
2023-05-23T05:30:26.252Z,19.447937
2023-05-23T05:31:35.087Z,19.508362
2023-05-23T05:32:44.576Z,19.508362
2023-05-23T05:33:54.618Z,19.639282
2023-05-23T05:35:03.270Z,19.468079
2023-05-23T05:36:12.950Z,19.588928
2023-05-23T05:37:21.611Z,19.558716
2023-05-23T05:38:30.316Z,19.397583
2023-05-23T05:39:39.981Z,19.3573
2023-05-23T05:40:48.631Z,19.387512
2023-05-23T05:41:58.322Z,19.3573
2023-05-23T05:43:07.989Z,19.397583
2023-05-23T05:44:15.653Z,19.48822
2023-05-23T05:45:25.294Z,19.337158
2023-05-23T05:46:34.005Z,19.508362
2023-05-23T05:47:43.767Z,19.659424
2023-05-23T05:48:53.311Z,19.709778
2023-05-23T05:50:00.964Z,19.619141
2023-05-23T05:51:10.621Z,19.437866
2023-05-23T05:52:20.293Z,19.588928
2023-05-23T05:53:30.048Z,19.629211
2023-05-23T05:54:38.713Z,19.729919
2023-05-23T05:55:48.372Z,19.558716
2023-05-23T05:56:58.067Z,19.578857
2023-05-23T05:58:06.719Z,19.538574
2023-05-23T05:59:16.416Z,19.548645
2023-05-23T06:00:26.083Z,19.659424
2023-05-23T06:01:34.760Z,19.840698
2023-05-23T06:02:44.572Z,19.951477
2023-05-23T06:03:54.424Z,19.941406
2023-05-23T06:05:03.962Z,20.072327
2023-05-23T06:06:13.503Z,20.092468
2023-05-23T06:07:22.430Z,20.132751
2023-05-23T06:08:32.151Z,20.223389
2023-05-23T06:09:41.846Z,20.374451
2023-05-23T06:10:51.533Z,20.4953
2023-05-23T06:12:01.172Z,20.465088
2023-05-23T06:13:10.888Z,20.475159
2023-05-23T06:14:19.578Z,20.505371
2023-05-23T06:15:29.218Z,20.505371
2023-05-23T06:16:36.934Z,20.61615
2023-05-23T06:17:46.641Z,20.515442
2023-05-23T06:18:56.308Z,20.505371
2023-05-23T06:20:04.144Z,20.626221
2023-05-23T06:21:13.673Z,20.716858
2023-05-23T06:22:22.356Z,20.696716
2023-05-23T06:23:31.030Z,20.807495
2023-05-23T06:24:40.683Z,20.918274
2023-05-23T06:25:48.379Z,21.109619
2023-05-23T06:26:57.049Z,21.109619
2023-05-23T06:28:06.708Z,21.059265
2023-05-23T06:29:15.370Z,20.98877
2023-05-23T06:30:25.007Z,20.99884
2023-05-23T06:31:33.749Z,21.139832
2023-05-23T06:32:42.405Z,20.958557
2023-05-23T06:33:52.088Z,21.139832
2023-05-23T06:35:01.762Z,21.270752
2023-05-23T06:36:11.572Z,21.351318
2023-05-23T06:37:21.123Z,21.431885
2023-05-23T06:38:29.867Z,21.452026
2023-05-23T06:39:39.529Z,21.431885
2023-05-23T06:40:48.161Z,21.37146
2023-05-23T06:41:56.801Z,21.210327
2023-05-23T06:43:06.459Z,21.270752
2023-05-23T06:44:15.129Z,21.331177
2023-05-23T06:45:24.133Z,21.24054
2023-05-23T06:46:33.815Z,20.98877
2023-05-23T06:47:43.588Z,20.99884
2023-05-23T06:48:59.440Z,21.109619
2023-05-23T06:50:03.830Z,21.321106
2023-05-23T06:51:11.610Z,21.391602
2023-05-23T06:52:21.362Z,21.542664
2023-05-23T06:53:29.875Z,21.522522
2023-05-23T06:54:38.524Z,21.401672
2023-05-23T06:55:48.212Z,21.613159
2023-05-23T06:56:57.898Z,21.693726
2023-05-23T06:58:07.563Z,21.572876
2023-05-23T06:59:17.239Z,21.421814
2023-05-23T07:00:25.191Z,21.25061
2023-05-23T07:01:34.888Z,21.331177
2023-05-23T07:02:43.599Z,21.452026
2023-05-23T07:03:52.181Z,21.321106
2023-05-23T07:05:01.863Z,21.552734
2023-05-23T07:06:10.528Z,21.804504
2023-05-23T07:07:20.180Z,21.985779
2023-05-23T07:08:28.960Z,22.227478
2023-05-23T07:09:38.507Z,22.479248
2023-05-23T07:10:48.146Z,22.479248
2023-05-23T07:11:56.837Z,22.49939
2023-05-23T07:13:06.494Z,22.50946
2023-05-23T07:14:16.195Z,22.348328
2023-05-23T07:15:24.845Z,22.328186
2023-05-23T07:16:34.706Z,22.297974
2023-05-23T07:17:43.361Z,22.50946
2023-05-23T07:18:53.060Z,22.75116
2023-05-23T07:20:02.694Z,22.942505
2023-05-23T07:21:10.345Z,23.023071
2023-05-23T07:22:20.073Z,22.720947
2023-05-23T07:23:29.762Z,22.660522
2023-05-23T07:24:37.534Z,22.49939
2023-05-23T07:26:00.897Z,22.50946
2023-05-23T07:26:57.712Z,22.700806
2023-05-23T07:28:05.381Z,22.539673
2023-05-23T07:29:15.040Z,22.529602
2023-05-23T07:30:23.728Z,22.50946
2023-05-23T07:31:33.428Z,22.680664
2023-05-23T07:32:43.109Z,22.690735
2023-05-23T07:33:50.717Z,22.872009
2023-05-23T07:35:03.088Z,22.851868
2023-05-23T07:36:12.882Z,22.88208
2023-05-23T07:37:21.526Z,22.88208
2023-05-23T07:38:31.192Z,22.831726
2023-05-23T07:39:38.869Z,22.600098
2023-05-23T07:40:55.545Z,22.600098
2023-05-23T07:41:59.216Z,22.690735
2023-05-23T07:43:07.865Z,22.660522
2023-05-23T07:44:17.538Z,22.851868
2023-05-23T07:45:27.174Z,22.872009
2023-05-23T07:46:34.924Z,22.992859
2023-05-23T07:47:44.534Z,22.992859
2023-05-23T07:48:51.167Z,23.033142
2023-05-23T07:50:00.820Z,22.851868
2023-05-23T07:51:08.459Z,22.982788
2023-05-23T07:52:17.196Z,23.023071
2023-05-23T07:53:26.843Z,23.103638
2023-05-23T07:54:34.518Z,23.184204
2023-05-23T07:55:44.189Z,22.902222
2023-05-23T07:56:52.856Z,23.033142
2023-05-23T07:58:02.519Z,22.912292
2023-05-23T07:59:12.179Z,23.204346
2023-05-23T08:00:19.815Z,23.153992
2023-05-23T08:01:28.480Z,23.204346
2023-05-23T08:02:38.133Z,23.405762
2023-05-23T08:03:47.819Z,23.315125
2023-05-23T08:04:56.468Z,23.2547
2023-05-23T08:06:06.131Z,23.335266
2023-05-23T08:07:13.768Z,23.50647
2023-05-23T08:08:23.436Z,23.587036
2023-05-23T08:09:33.141Z,23.50647
2023-05-23T08:10:42.901Z,23.13385
2023-05-23T08:11:52.436Z,22.680664
2023-05-23T08:13:01.136Z,22.600098
2023-05-23T08:14:10.734Z,22.388611
2023-05-23T08:15:19.399Z,22.076416
2023-05-23T08:16:29.065Z,21.99585
2023-05-23T08:17:38.844Z,22.056274
2023-05-23T08:18:47.357Z,22.076416
2023-05-23T08:19:56.055Z,21.99585
2023-05-23T08:21:05.709Z,21.905212
2023-05-23T08:22:13.341Z,21.905212
2023-05-23T08:23:22.982Z,22.197266
2023-05-23T08:24:32.650Z,22.348328
2023-05-23T08:25:40.370Z,22.428894
2023-05-23T08:26:50.016Z,22.318115
2023-05-23T08:27:58.662Z,22.408752
2023-05-23T08:29:08.329Z,22.650452
2023-05-23T08:30:17.953Z,22.720947
2023-05-23T08:31:27.777Z,22.50946
2023-05-23T08:32:38.429Z,22.348328
2023-05-23T08:33:47.134Z,22.227478
2023-05-23T08:34:54.777Z,22.177124
2023-05-23T08:36:04.445Z,22.438965
2023-05-23T08:37:12.125Z,22.529602
2023-05-23T08:38:20.833Z,22.50946
2023-05-23T08:39:30.475Z,22.831726
2023-05-23T08:40:40.319Z,23.033142
2023-05-23T08:41:49.806Z,23.083496
2023-05-23T08:42:58.541Z,22.872009
2023-05-23T08:44:08.130Z,22.731018
2023-05-23T08:45:17.831Z,22.569885
2023-05-23T08:46:27.500Z,22.529602
2023-05-23T08:47:36.133Z,22.438965
2023-05-23T08:48:45.778Z,22.197266
2023-05-23T08:49:55.471Z,21.885071
2023-05-23T08:51:05.152Z,21.985779
2023-05-23T08:52:14.556Z,22.12677
2023-05-23T08:53:23.546Z,22.096558
2023-05-23T08:54:33.215Z,22.277832
2023-05-23T08:55:41.011Z,22.37854
2023-05-23T08:56:49.510Z,22.12677
2023-05-23T08:57:59.224Z,22.066345
2023-05-23T08:59:06.880Z,22.177124
2023-05-23T09:00:16.526Z,22.217407
2023-05-23T09:01:25.268Z,22.25769
2023-05-23T09:02:34.898Z,22.388611
2023-05-23T09:03:44.597Z,22.539673
2023-05-23T09:04:53.241Z,22.469177
2023-05-23T09:06:03.040Z,22.50946
2023-05-23T09:07:11.659Z,22.50946
2023-05-23T09:08:20.315Z,22.549744
2023-05-23T09:09:29.976Z,22.539673
2023-05-23T09:10:38.776Z,22.660522
2023-05-23T09:11:46.327Z,22.600098
2023-05-23T09:12:56.002Z,23.00293
2023-05-23T09:14:05.279Z,23.174133
2023-05-23T09:15:14.153Z,23.214417
2023-05-23T09:16:23.892Z,23.123779
2023-05-23T09:17:31.513Z,23.365479
2023-05-23T09:18:41.158Z,23.707886
2023-05-23T09:19:50.824Z,23.647461
2023-05-23T09:20:57.542Z,23.949585
2023-05-23T09:22:07.197Z,24.110718
2023-05-23T09:23:15.889Z,24.181213
2023-05-23T09:24:24.594Z,24.231567
2023-05-23T09:25:34.250Z,23.949585
2023-05-23T09:26:42.962Z,23.909302
2023-05-23T09:27:52.585Z,23.647461
2023-05-23T09:29:01.243Z,23.425903
2023-05-23T09:30:09.937Z,23.38562
2023-05-23T09:31:19.617Z,23.395691
2023-05-23T09:32:27.267Z,23.466187
2023-05-23T09:33:35.979Z,23.395691
2023-05-23T09:34:45.629Z,23.50647
2023-05-23T09:35:55.284Z,23.38562
2023-05-23T09:37:04.943Z,23.284912
2023-05-23T09:38:13.590Z,23.274841
2023-05-23T09:39:22.247Z,23.50647
2023-05-23T09:40:32.005Z,23.738098
2023-05-23T09:41:39.636Z,24.050293
2023-05-23T09:42:48.309Z,24.050293
2023-05-23T09:43:57.931Z,24.130859
2023-05-23T09:45:05.636Z,23.828735
2023-05-23T09:46:15.312Z,23.576965
2023-05-23T09:47:23.026Z,23.556824
2023-05-23T09:48:31.622Z,23.063354
2023-05-23T09:49:41.320Z,22.932434
2023-05-23T09:50:49.943Z,22.982788
2023-05-23T09:51:59.592Z,22.932434
2023-05-23T09:53:08.261Z,22.690735
2023-05-23T09:54:16.946Z,22.388611
2023-05-23T09:55:26.597Z,22.227478
2023-05-23T09:56:34.262Z,22.146912
2023-05-23T09:57:42.982Z,22.438965
2023-05-23T09:58:52.662Z,22.620239
2023-05-23T10:00:00.420Z,22.700806
2023-05-23T10:01:10.130Z,22.831726
2023-05-23T10:02:17.788Z,23.053284
2023-05-23T10:03:26.483Z,23.234558
2023-05-23T10:04:36.151Z,23.204346
2023-05-23T10:05:44.789Z,22.932434
2023-05-23T10:06:54.471Z,22.992859
2023-05-23T10:08:04.160Z,22.992859
2023-05-23T10:09:11.786Z,22.982788
2023-05-23T10:10:21.450Z,23.103638
2023-05-23T10:11:29.118Z,23.274841
2023-05-23T10:12:36.797Z,23.204346
2023-05-23T10:13:46.443Z,23.38562
2023-05-23T10:14:55.103Z,23.335266
2023-05-23T10:16:04.768Z,23.38562
2023-05-23T10:17:14.500Z,23.576965
2023-05-23T10:18:23.117Z,23.858948
2023-05-23T10:19:32.829Z,23.75824
2023-05-23T10:20:41.611Z,23.879089
2023-05-23T10:21:50.244Z,24.050293
2023-05-23T10:22:59.867Z,24.050293
2023-05-23T10:24:08.523Z,24.161072
2023-05-23T10:25:18.169Z,24.14093
2023-05-23T10:26:26.833Z,24.201355
2023-05-23T10:27:35.534Z,24.281921
2023-05-23T10:28:45.175Z,24.14093
2023-05-23T10:29:52.822Z,24.171143
2023-05-23T10:31:02.502Z,24.130859
2023-05-23T10:32:12.156Z,24.050293
2023-05-23T10:33:20.824Z,24.382629
2023-05-23T10:34:31.466Z,24.634399
2023-05-23T10:35:40.182Z,24.694824
2023-05-23T10:36:49.818Z,24.946594
2023-05-23T10:37:59.547Z,24.946594
2023-05-23T10:39:08.192Z,24.654541
2023-05-23T10:40:16.867Z,24.755249
2023-05-23T10:41:26.510Z,24.473267
2023-05-23T10:42:35.182Z,24.020081
2023-05-23T10:43:44.822Z,24.100647
2023-05-23T10:44:53.540Z,24.332275
2023-05-23T10:46:03.261Z,24.604187
2023-05-23T10:47:13.005Z,24.614258
2023-05-23T10:48:21.555Z,24.553833
2023-05-23T10:49:31.208Z,24.735107
2023-05-23T10:50:41.071Z,24.634399
2023-05-23T10:51:50.313Z,24.51355
2023-05-23T10:52:58.263Z,24.453125
2023-05-23T10:54:08.141Z,24.281921
2023-05-23T10:55:17.769Z,24.503479
2023-05-23T10:56:27.409Z,24.3927
2023-05-23T10:57:35.101Z,24.181213
2023-05-23T10:58:44.761Z,24.030151
2023-05-23T10:59:54.417Z,23.768311
2023-05-23T11:01:02.050Z,23.778381
2023-05-23T11:02:11.732Z,23.869019
2023-05-23T11:03:20.495Z,23.858948
2023-05-23T11:04:28.147Z,23.979797
2023-05-23T11:05:37.712Z,23.949585
2023-05-23T11:06:46.357Z,23.909302
2023-05-23T11:07:55.049Z,23.828735
2023-05-23T11:09:06.954Z,23.869019
2023-05-23T11:10:14.501Z,24.100647
2023-05-23T11:11:24.086Z,23.959656
2023-05-23T11:12:32.734Z,24.201355
2023-05-23T11:13:41.433Z,24.533691
2023-05-23T11:14:53.245Z,24.775391
2023-05-23T11:16:00.852Z,24.664612
2023-05-23T11:17:09.485Z,24.694824
2023-05-23T11:18:19.174Z,25.077515
2023-05-23T11:19:28.082Z,25.500488
2023-05-23T11:20:37.591Z,26.004028
2023-05-23T11:21:47.230Z,26.557922
2023-05-23T11:22:55.955Z,26.628418
2023-05-23T11:24:05.561Z,26.578064
2023-05-23T11:25:14.305Z,25.963745
2023-05-23T11:26:22.979Z,25.752258
2023-05-23T11:27:32.599Z,25.842896
2023-05-23T11:28:41.268Z,25.90332
2023-05-23T11:29:50.900Z,26.134949
2023-05-23T11:30:59.584Z,26.074524
2023-05-23T11:32:10.589Z,26.52771
2023-05-23T11:33:18.960Z,26.809692
2023-05-23T11:34:27.549Z,27.212524
2023-05-23T11:35:36.154Z,27.222595
2023-05-23T11:36:45.867Z,27.494507
2023-05-23T11:37:54.547Z,27.867126
2023-05-23T11:39:04.243Z,28.048401
2023-05-23T11:40:12.890Z,28.199463
2023-05-23T11:41:21.513Z,28.2901
2023-05-23T11:42:31.303Z,28.370667
2023-05-23T11:43:40.936Z,28.078613
2023-05-23T11:44:50.587Z,28.068542
2023-05-23T11:45:59.225Z,27.746277
2023-05-23T11:47:07.867Z,27.454224
2023-05-23T11:48:17.774Z,27.353516
2023-05-23T11:49:25.198Z,27.625427
2023-05-23T11:50:34.856Z,27.66571
2023-05-23T11:51:44.507Z,27.867126
2023-05-23T11:52:52.229Z,28.139038
2023-05-23T11:54:01.921Z,27.897339
2023-05-23T11:55:10.606Z,27.947693
2023-05-23T11:56:19.275Z,27.857056
2023-05-23T11:57:28.926Z,28.219604
2023-05-23T11:58:37.625Z,28.03833
2023-05-23T11:59:47.255Z,27.675781
2023-05-23T12:00:55.939Z,27.705994
2023-05-23T12:02:04.615Z,27.675781
2023-05-23T12:03:14.385Z,27.998047
2023-05-23T12:04:22.030Z,28.03833
2023-05-23T12:05:30.565Z,28.380737
2023-05-23T12:06:40.387Z,28.562012
2023-05-23T12:07:48.099Z,28.592224
2023-05-23T12:08:57.752Z,27.544861
2023-05-23T12:10:06.455Z,27.001038
2023-05-23T12:11:16.111Z,26.799622
2023-05-23T12:12:25.830Z,27.142029
2023-05-23T12:13:35.486Z,27.373657
2023-05-23T12:14:43.142Z,27.424011
2023-05-23T12:15:53.025Z,27.514648
2023-05-23T12:17:01.437Z,27.575073
2023-05-23T12:18:11.157Z,27.625427
2023-05-23T12:19:19.808Z,27.897339
2023-05-23T12:20:27.426Z,28.269958
2023-05-23T12:21:37.126Z,28.743286
2023-05-23T12:22:44.778Z,29.317322
2023-05-23T12:23:54.415Z,29.357605
2023-05-23T12:25:04.090Z,29.287109
2023-05-23T12:26:11.742Z,29.216614
2023-05-23T12:27:21.401Z,29.498596
2023-05-23T12:28:30.050Z,29.780579
2023-05-23T12:29:38.681Z,30.102844
2023-05-23T12:30:48.431Z,29.981995
2023-05-23T12:31:58.032Z,29.508667
2023-05-23T12:33:06.966Z,29.266968
2023-05-23T12:34:16.554Z,29.015198
2023-05-23T12:35:25.271Z,28.864136
2023-05-23T12:36:36.282Z,28.521729
2023-05-23T12:37:45.614Z,28.259888
2023-05-23T12:38:54.246Z,28.602295
2023-05-23T12:40:03.898Z,29.075623
2023-05-23T12:41:13.557Z,29.256897
2023-05-23T12:42:22.295Z,29.538879
2023-05-23T12:43:31.943Z,30.314331
2023-05-23T12:44:39.591Z,30.747375
2023-05-23T12:45:49.248Z,31.099854
2023-05-23T12:46:57.941Z,30.67688
2023-05-23T12:48:07.733Z,29.971924
2023-05-23T12:49:17.250Z,29.065552
2023-05-23T12:50:24.905Z,28.54187
2023-05-23T12:51:34.564Z,27.705994
2023-05-23T12:52:44.248Z,27.222595
2023-05-23T12:53:52.901Z,26.849976
2023-05-23T12:55:02.542Z,26.52771
2023-05-23T12:56:11.186Z,26.376648
2023-05-23T12:57:19.946Z,26.134949
2023-05-23T12:58:31.189Z,26.205444
2023-05-23T12:59:39.246Z,26.104736
2023-05-23T13:00:47.897Z,26.245728
2023-05-23T13:01:57.571Z,26.517639
2023-05-23T13:03:06.792Z,26.77948
2023-05-23T13:04:16.419Z,27.675781
2023-05-23T13:05:26.025Z,28.108826
2023-05-23T13:06:34.687Z,28.16925
2023-05-23T13:07:43.328Z,28.491516
2023-05-23T13:08:51.980Z,29.075623
2023-05-23T13:10:00.606Z,29.498596